createdAt,value
2018-12-27T00:00:17.209Z,1004.55
2018-12-27T00:01:17.203Z,1004.61
2018-12-27T00:02:17.188Z,1004.54
2018-12-27T00:03:17.236Z,1004.60
2018-12-27T00:04:17.171Z,1004.62
2018-12-27T00:05:17.158Z,1004.63
2018-12-27T00:06:17.163Z,1004.57
2018-12-27T00:07:17.157Z,1004.55
2018-12-27T00:08:17.145Z,1004.53
2018-12-27T00:09:17.174Z,1004.49
2018-12-27T00:10:17.124Z,1004.49
2018-12-27T00:11:17.174Z,1004.44
2018-12-27T00:12:17.087Z,1004.53
2018-12-27T00:13:17.118Z,1004.43
2018-12-27T00:14:17.074Z,1004.45
2018-12-27T00:15:17.072Z,1004.41
2018-12-27T00:16:17.040Z,1004.42
2018-12-27T00:17:17.037Z,1004.43
2018-12-27T00:18:17.078Z,1004.38
2018-12-27T00:19:17.032Z,1004.42
2018-12-27T00:20:16.998Z,1004.40
2018-12-27T00:21:17.062Z,1004.39
2018-12-27T00:22:16.981Z,1004.36
2018-12-27T00:23:16.971Z,1004.39
2018-12-27T00:24:17.026Z,1004.35
2018-12-27T00:25:16.946Z,1004.34
2018-12-27T00:26:16.936Z,1004.33
2018-12-27T00:27:16.965Z,1004.33
2018-12-27T00:28:16.956Z,1004.41
2018-12-27T00:29:16.918Z,1004.39
2018-12-27T00:30:16.916Z,1004.39
2018-12-27T00:31:16.884Z,1004.34
2018-12-27T00:32:16.877Z,1004.35
2018-12-27T00:33:16.868Z,1004.38
2018-12-27T00:34:16.898Z,1004.37
2018-12-27T00:35:16.844Z,1004.36
2018-12-27T00:36:16.846Z,1004.36
2018-12-27T00:37:16.832Z,1004.31
2018-12-27T00:38:16.845Z,1004.30
2018-12-27T00:39:16.827Z,1004.30
2018-12-27T00:40:16.827Z,1004.30
2018-12-27T00:41:16.779Z,1004.27
2018-12-27T00:42:16.771Z,1004.29
2018-12-27T00:43:16.761Z,1004.33
2018-12-27T00:44:16.767Z,1004.29
2018-12-27T00:45:16.756Z,1004.27
2018-12-27T00:46:16.729Z,1004.29
2018-12-27T00:47:16.717Z,1004.34
2018-12-27T00:48:16.710Z,1004.29
2018-12-27T00:49:16.711Z,1004.29
2018-12-27T00:50:16.747Z,1004.25
2018-12-27T00:51:16.679Z,1004.25
2018-12-27T00:52:16.692Z,1004.30
2018-12-27T00:53:16.665Z,1004.28
2018-12-27T00:54:16.680Z,1004.28
2018-12-27T00:55:16.636Z,1004.24
2018-12-27T00:56:16.658Z,1004.24
2018-12-27T00:57:16.613Z,1004.24
2018-12-27T00:58:16.625Z,1004.24
2018-12-27T00:59:16.608Z,1004.24
2018-12-27T01:00:16.597Z,1004.24
2018-12-27T01:01:16.578Z,1004.18
2018-12-27T01:02:16.564Z,1004.28
2018-12-27T01:03:16.562Z,1004.18
2018-12-27T01:04:16.558Z,1004.19
2018-12-27T01:05:16.528Z,1004.24
2018-12-27T01:06:16.578Z,1004.21
2018-12-27T01:07:16.516Z,1004.19
2018-12-27T01:08:16.507Z,1004.17
2018-12-27T01:09:16.503Z,1004.20
2018-12-27T01:10:16.493Z,1004.19
2018-12-27T01:11:16.468Z,1004.18
2018-12-27T01:12:16.455Z,1004.13
2018-12-27T01:13:16.472Z,1004.14
2018-12-27T01:14:16.447Z,1004.18
2018-12-27T01:15:16.426Z,1004.20
2018-12-27T01:16:16.426Z,1004.21
2018-12-27T01:17:16.433Z,1004.22
2018-12-27T01:18:16.393Z,1004.18
2018-12-27T01:19:16.409Z,1004.18
2018-12-27T01:20:16.374Z,1004.17
2018-12-27T01:21:16.362Z,1004.23
2018-12-27T01:22:16.394Z,1004.22
2018-12-27T01:23:16.343Z,1004.23
2018-12-27T01:24:16.341Z,1004.21
2018-12-27T01:25:16.342Z,1004.18
2018-12-27T01:26:16.316Z,1004.13
2018-12-27T01:27:16.302Z,1004.17
2018-12-27T01:28:16.313Z,1004.11
2018-12-27T01:29:16.277Z,1004.13
2018-12-27T01:30:16.283Z,1004.18
2018-12-27T01:31:16.283Z,1004.22
2018-12-27T01:32:16.266Z,1004.20
2018-12-27T01:33:18.879Z,1004.18
2018-12-27T01:34:16.269Z,1004.23
2018-12-27T01:35:16.232Z,1004.16
2018-12-27T01:36:16.203Z,1004.17
2018-12-27T01:37:16.195Z,1004.16
2018-12-27T01:38:16.186Z,1004.17
2018-12-27T01:39:16.179Z,1004.19
2018-12-27T01:40:16.178Z,1004.11
2018-12-27T01:41:16.193Z,1004.14
2018-12-27T01:42:16.142Z,1004.15
2018-12-27T01:43:16.138Z,1004.13
2018-12-27T01:44:16.141Z,1004.16
2018-12-27T01:45:16.126Z,1004.12
2018-12-27T01:46:16.106Z,1004.12
2018-12-27T01:47:16.092Z,1004.12
2018-12-27T01:48:16.078Z,1004.10
2018-12-27T01:49:16.126Z,1004.08
2018-12-27T01:50:16.071Z,1004.13
2018-12-27T01:51:16.048Z,1004.03
2018-12-27T01:52:16.038Z,1004.02
2018-12-27T01:53:16.029Z,1004.03
2018-12-27T01:54:16.022Z,1004.00
2018-12-27T01:55:16.021Z,1003.99
2018-12-27T01:56:15.995Z,1003.95
2018-12-27T01:57:16.007Z,1004.00
2018-12-27T01:58:15.978Z,1003.99
2018-12-27T01:59:15.967Z,1004.05
2018-12-27T02:00:15.969Z,1004.03
2018-12-27T02:01:15.943Z,1004.05
2018-12-27T02:02:15.944Z,1004.04
2018-12-27T02:03:15.924Z,1004.10
2018-12-27T02:04:15.913Z,1004.09
2018-12-27T02:05:15.948Z,1003.99
2018-12-27T02:06:15.891Z,1003.99
2018-12-27T02:07:15.881Z,1004.01
2018-12-27T02:08:15.869Z,1003.94
2018-12-27T02:09:15.859Z,1004.00
2018-12-27T02:10:15.896Z,1003.94
2018-12-27T02:11:15.839Z,1003.93
2018-12-27T02:12:15.865Z,1003.92
2018-12-27T02:13:15.823Z,1003.90
2018-12-27T02:14:15.823Z,1003.93
2018-12-27T02:15:15.824Z,1003.97
2018-12-27T02:16:15.825Z,1003.93
2018-12-27T02:17:15.783Z,1003.88
2018-12-27T02:18:15.770Z,1003.89
2018-12-27T02:19:15.755Z,1003.86
2018-12-27T02:20:15.746Z,1003.92
2018-12-27T02:21:15.752Z,1003.90
2018-12-27T02:22:15.735Z,1003.84
2018-12-27T02:23:15.737Z,1003.90
2018-12-27T02:24:15.712Z,1003.89
2018-12-27T02:25:15.707Z,1003.84
2018-12-27T02:26:15.697Z,1003.86
2018-12-27T02:27:15.729Z,1003.83
2018-12-27T02:28:15.665Z,1003.77
2018-12-27T02:29:15.671Z,1003.77
2018-12-27T02:30:15.673Z,1003.78
2018-12-27T02:31:15.658Z,1003.74
2018-12-27T02:32:15.625Z,1003.82
2018-12-27T02:33:15.611Z,1003.72
2018-12-27T02:34:15.598Z,1003.75
2018-12-27T02:35:15.610Z,1003.73
2018-12-27T02:36:15.622Z,1003.73
2018-12-27T02:37:15.585Z,1003.73
2018-12-27T02:38:15.555Z,1003.71
2018-12-27T02:39:15.545Z,1003.68
2018-12-27T02:40:15.541Z,1003.68
2018-12-27T02:41:15.543Z,1003.67
2018-12-27T02:42:15.517Z,1003.62
2018-12-27T02:43:15.527Z,1003.59
2018-12-27T02:44:15.498Z,1003.68
2018-12-27T02:45:15.494Z,1003.64
2018-12-27T02:46:15.502Z,1003.65
2018-12-27T02:47:15.468Z,1003.64
2018-12-27T02:48:15.464Z,1003.68
2018-12-27T02:49:15.440Z,1003.59
2018-12-27T02:50:15.431Z,1003.64
2018-12-27T02:51:15.446Z,1003.62
2018-12-27T02:52:15.419Z,1003.59
2018-12-27T02:53:15.409Z,1003.62
2018-12-27T02:54:15.419Z,1003.57
2018-12-27T02:55:15.383Z,1003.58
2018-12-27T02:56:15.427Z,1003.57
2018-12-27T02:57:15.363Z,1003.52
2018-12-27T02:58:15.352Z,1003.52
2018-12-27T02:59:15.343Z,1003.52
2018-12-27T03:00:15.339Z,1003.54
2018-12-27T03:01:15.322Z,1003.50
2018-12-27T03:02:15.376Z,1003.50
2018-12-27T03:03:15.297Z,1003.47
2018-12-27T03:04:15.335Z,1003.44
2018-12-27T03:05:15.287Z,1003.40
2018-12-27T03:06:15.265Z,1003.43
2018-12-27T03:07:15.266Z,1003.41
2018-12-27T03:08:15.248Z,1003.47
2018-12-27T03:09:15.267Z,1003.42
2018-12-27T03:10:15.222Z,1003.44
2018-12-27T03:11:15.227Z,1003.49
2018-12-27T03:12:15.235Z,1003.40
2018-12-27T03:13:15.190Z,1003.39
2018-12-27T03:14:15.182Z,1003.36
2018-12-27T03:15:15.173Z,1003.36
2018-12-27T03:16:15.164Z,1003.39
2018-12-27T03:17:15.164Z,1003.31
2018-12-27T03:18:15.140Z,1003.34
2018-12-27T03:19:15.158Z,1003.37
2018-12-27T03:20:15.150Z,1003.36
2018-12-27T03:21:15.141Z,1003.40
2018-12-27T03:22:15.110Z,1003.39
2018-12-27T03:23:15.087Z,1003.42
2018-12-27T03:24:15.074Z,1003.41
2018-12-27T03:25:15.081Z,1003.38
2018-12-27T03:26:15.092Z,1003.35
2018-12-27T03:27:15.067Z,1003.40
2018-12-27T03:28:15.062Z,1003.38
2018-12-27T03:29:15.021Z,1003.31
2018-12-27T03:30:15.039Z,1003.33
2018-12-27T03:31:15.029Z,1003.35
2018-12-27T03:32:15.016Z,1003.34
2018-12-27T03:33:14.982Z,1003.29
2018-12-27T03:34:14.988Z,1003.29
2018-12-27T03:35:14.978Z,1003.24
2018-12-27T03:36:14.952Z,1003.25
2018-12-27T03:37:14.951Z,1003.25
2018-12-27T03:38:14.935Z,1003.26
2018-12-27T03:39:14.917Z,1003.22
2018-12-27T03:40:14.905Z,1003.18
2018-12-27T03:41:14.901Z,1003.25
2018-12-27T03:42:14.902Z,1003.21
2018-12-27T03:43:14.903Z,1003.24
2018-12-27T03:44:14.893Z,1003.24
2018-12-27T03:45:14.856Z,1003.23
2018-12-27T03:46:14.848Z,1003.15
2018-12-27T03:47:14.850Z,1003.18
2018-12-27T03:48:14.820Z,1003.16
2018-12-27T03:49:14.850Z,1003.11
2018-12-27T03:50:14.805Z,1003.11
2018-12-27T03:51:14.789Z,1003.13
2018-12-27T03:52:14.856Z,1003.07
2018-12-27T03:53:14.768Z,1003.11
2018-12-27T03:54:14.768Z,1003.11
2018-12-27T03:55:14.750Z,1003.05
2018-12-27T03:56:14.740Z,1003.05
2018-12-27T03:57:14.802Z,1003.09
2018-12-27T03:58:14.717Z,1003.06
2018-12-27T03:59:14.713Z,1003.08
2018-12-27T04:00:14.761Z,1003.12
2018-12-27T04:01:14.688Z,1003.07
2018-12-27T04:02:14.696Z,1003.10
2018-12-27T04:03:14.663Z,1003.09
2018-12-27T04:04:14.655Z,1003.10
2018-12-27T04:05:14.651Z,1003.05
2018-12-27T04:06:14.632Z,1003.11
2018-12-27T04:07:14.673Z,1003.09
2018-12-27T04:08:14.621Z,1003.06
2018-12-27T04:09:14.607Z,1003.05
2018-12-27T04:10:14.591Z,1003.09
2018-12-27T04:11:14.582Z,1003.02
2018-12-27T04:12:14.585Z,1003.03
2018-12-27T04:13:14.562Z,1003.07
2018-12-27T04:14:14.551Z,1003.07
2018-12-27T04:15:14.551Z,1003.00
2018-12-27T04:16:14.531Z,1003.03
2018-12-27T04:17:14.548Z,1003.01
2018-12-27T04:18:14.506Z,1003.02
2018-12-27T04:19:14.495Z,1002.99
2018-12-27T04:20:14.492Z,1003.00
2018-12-27T04:21:14.476Z,1002.99
2018-12-27T04:22:14.470Z,1002.97
2018-12-27T04:23:14.496Z,1003.00
2018-12-27T04:24:14.451Z,1002.95
2018-12-27T04:25:14.434Z,1002.99
2018-12-27T04:26:14.426Z,1002.97
2018-12-27T04:27:14.414Z,1002.93
2018-12-27T04:28:14.421Z,1002.96
2018-12-27T04:29:14.399Z,1002.93
2018-12-27T04:30:14.386Z,1002.94
2018-12-27T04:31:14.411Z,1002.97
2018-12-27T04:32:14.378Z,1002.93
2018-12-27T04:33:14.378Z,1002.96
2018-12-27T04:34:14.342Z,1002.93
2018-12-27T04:35:14.333Z,1002.92
2018-12-27T04:36:14.327Z,1002.86
2018-12-27T04:37:14.320Z,1002.90
2018-12-27T04:38:14.314Z,1002.91
2018-12-27T04:39:14.287Z,1002.91
2018-12-27T04:40:14.277Z,1002.91
2018-12-27T04:41:14.265Z,1002.87
2018-12-27T04:42:14.260Z,1002.84
2018-12-27T04:43:14.281Z,1002.80
2018-12-27T04:44:14.251Z,1002.80
2018-12-27T04:45:14.224Z,1002.77
2018-12-27T04:46:14.217Z,1002.71
2018-12-27T04:47:14.237Z,1002.71
2018-12-27T04:48:14.205Z,1002.73
2018-12-27T04:49:14.182Z,1002.72
2018-12-27T04:50:14.173Z,1002.77
2018-12-27T04:51:14.161Z,1002.73
2018-12-27T04:52:14.164Z,1002.68
2018-12-27T04:53:14.157Z,1002.68
2018-12-27T04:54:14.133Z,1002.75
2018-12-27T04:55:14.160Z,1002.73
2018-12-27T04:56:14.119Z,1002.72
2018-12-27T04:57:14.128Z,1002.73
2018-12-27T04:58:14.108Z,1002.73
2018-12-27T04:59:14.077Z,1002.75
2018-12-27T05:00:14.085Z,1002.77
2018-12-27T05:01:14.059Z,1002.80
2018-12-27T05:02:14.087Z,1002.75
2018-12-27T05:03:14.093Z,1002.81
2018-12-27T05:04:18.012Z,1002.87
2018-12-27T05:05:14.018Z,1002.81
2018-12-27T05:06:14.017Z,1002.86
2018-12-27T05:07:13.996Z,1002.85
2018-12-27T05:08:14.001Z,1002.85
2018-12-27T05:09:13.978Z,1002.87
2018-12-27T05:10:13.963Z,1002.84
2018-12-27T05:11:13.991Z,1002.87
2018-12-27T05:12:13.943Z,1002.90
2018-12-27T05:13:13.984Z,1002.87
2018-12-27T05:14:13.922Z,1002.88
2018-12-27T05:15:13.928Z,1002.90
2018-12-27T05:16:13.904Z,1002.93
2018-12-27T05:17:13.889Z,1002.97
2018-12-27T05:18:13.927Z,1002.92
2018-12-27T05:19:13.898Z,1002.89
2018-12-27T05:20:13.859Z,1002.96
2018-12-27T05:21:13.871Z,1002.94
2018-12-27T05:22:13.837Z,1002.93
2018-12-27T05:23:13.848Z,1003.00
2018-12-27T05:24:13.815Z,1003.04
2018-12-27T05:25:13.841Z,1003.07
2018-12-27T05:26:13.848Z,1003.04
2018-12-27T05:27:13.791Z,1003.09
2018-12-27T05:28:13.790Z,1003.08
2018-12-27T05:29:13.766Z,1003.05
2018-12-27T05:30:13.766Z,1003.11
2018-12-27T05:31:13.765Z,1003.21
2018-12-27T05:32:13.732Z,1003.17
2018-12-27T05:33:13.793Z,1003.23
2018-12-27T05:34:13.713Z,1003.18
2018-12-27T05:35:13.709Z,1003.15
2018-12-27T05:36:13.689Z,1003.11
2018-12-27T05:37:13.677Z,1003.16
2018-12-27T05:38:13.686Z,1003.16
2018-12-27T05:39:13.660Z,1003.17
2018-12-27T05:40:13.646Z,1003.18
2018-12-27T05:41:13.639Z,1003.18
2018-12-27T05:42:13.686Z,1003.15
2018-12-27T05:43:13.666Z,1003.14
2018-12-27T05:44:13.606Z,1003.11
2018-12-27T05:45:13.601Z,1003.16
2018-12-27T05:46:13.603Z,1003.18
2018-12-27T05:47:13.573Z,1003.12
2018-12-27T05:48:13.565Z,1003.06
2018-12-27T05:49:13.577Z,1003.06
2018-12-27T05:50:13.560Z,1003.14
2018-12-27T05:51:13.533Z,1003.19
2018-12-27T05:52:13.520Z,1003.20
2018-12-27T05:53:13.556Z,1003.20
2018-12-27T05:54:13.519Z,1003.17
2018-12-27T05:55:13.508Z,1003.16
2018-12-27T05:56:13.530Z,1003.14
2018-12-27T05:57:13.467Z,1003.18
2018-12-27T05:58:13.472Z,1003.19
2018-12-27T05:59:13.471Z,1003.13
2018-12-27T06:00:13.443Z,1003.17
2018-12-27T06:01:13.474Z,1003.21
2018-12-27T06:02:13.465Z,1003.19
2018-12-27T06:03:13.411Z,1003.17
2018-12-27T06:04:13.411Z,1003.20
2018-12-27T06:05:13.400Z,1003.22
2018-12-27T06:06:13.401Z,1003.27
2018-12-27T06:07:13.371Z,1003.27
2018-12-27T06:08:13.352Z,1003.26
2018-12-27T06:09:13.355Z,1003.31
2018-12-27T06:10:13.333Z,1003.32
2018-12-27T06:11:13.321Z,1003.32
2018-12-27T06:12:13.355Z,1003.30
2018-12-27T06:13:13.306Z,1003.39
2018-12-27T06:14:13.304Z,1003.36
2018-12-27T06:15:13.281Z,1003.40
2018-12-27T06:16:13.268Z,1003.36
2018-12-27T06:17:13.257Z,1003.43
2018-12-27T06:18:13.253Z,1003.36
2018-12-27T06:19:13.286Z,1003.40
2018-12-27T06:20:13.225Z,1003.39
2018-12-27T06:21:13.223Z,1003.35
2018-12-27T06:22:13.205Z,1003.32
2018-12-27T06:23:13.198Z,1003.35
2018-12-27T06:24:13.203Z,1003.41
2018-12-27T06:25:13.204Z,1003.40
2018-12-27T06:26:13.165Z,1003.38
2018-12-27T06:27:13.153Z,1003.45
2018-12-27T06:28:13.161Z,1003.39
2018-12-27T06:29:13.151Z,1003.45
2018-12-27T06:30:13.121Z,1003.47
2018-12-27T06:31:13.129Z,1003.50
2018-12-27T06:32:13.125Z,1003.45
2018-12-27T06:33:13.091Z,1003.51
2018-12-27T06:34:13.092Z,1003.47
2018-12-27T06:35:13.070Z,1003.38
2018-12-27T06:36:13.057Z,1003.39
2018-12-27T06:37:13.065Z,1003.40
2018-12-27T06:38:13.038Z,1003.44
2018-12-27T06:39:13.042Z,1003.44
2018-12-27T06:40:13.041Z,1003.42
2018-12-27T06:41:13.040Z,1003.41
2018-12-27T06:42:12.997Z,1003.43
2018-12-27T06:43:13.003Z,1003.45
2018-12-27T06:44:12.981Z,1003.43
2018-12-27T06:45:12.983Z,1003.43
2018-12-27T06:46:12.952Z,1003.36
2018-12-27T06:47:12.944Z,1003.37
2018-12-27T06:48:12.930Z,1003.29
2018-12-27T06:49:12.924Z,1003.34
2018-12-27T06:50:12.958Z,1003.36
2018-12-27T06:51:12.909Z,1003.37
2018-12-27T06:52:12.912Z,1003.38
2018-12-27T06:53:12.884Z,1003.37
2018-12-27T06:54:12.871Z,1003.36
2018-12-27T06:55:12.871Z,1003.31
2018-12-27T06:56:12.854Z,1003.31
2018-12-27T06:57:12.840Z,1003.29
2018-12-27T06:58:12.841Z,1003.29
2018-12-27T06:59:12.839Z,1003.30
2018-12-27T07:00:12.818Z,1003.26
2018-12-27T07:01:12.806Z,1003.29
2018-12-27T07:02:12.784Z,1003.27
2018-12-27T07:03:12.826Z,1003.19
2018-12-27T07:04:12.793Z,1003.21
2018-12-27T07:05:12.773Z,1003.20
2018-12-27T07:06:12.745Z,1003.22
2018-12-27T07:07:12.746Z,1003.14
2018-12-27T07:08:12.722Z,1003.14
2018-12-27T07:09:12.712Z,1003.16
2018-12-27T07:10:12.715Z,1003.21
2018-12-27T07:11:12.689Z,1003.13
2018-12-27T07:12:12.717Z,1003.16
2018-12-27T07:13:12.676Z,1003.16
2018-12-27T07:14:12.677Z,1003.15
2018-12-27T07:15:12.671Z,1003.16
2018-12-27T07:16:12.667Z,1003.11
2018-12-27T07:17:12.636Z,1003.15
2018-12-27T07:18:12.615Z,1003.13
2018-12-27T07:19:12.608Z,1003.09
2018-12-27T07:20:12.618Z,1003.10
2018-12-27T07:21:12.591Z,1003.07
2018-12-27T07:22:12.607Z,1003.02
2018-12-27T07:23:12.563Z,1003.05
2018-12-27T07:24:12.554Z,1003.03
2018-12-27T07:25:12.557Z,1003.07
2018-12-27T07:26:12.563Z,1002.94
2018-12-27T07:27:12.551Z,1002.98
2018-12-27T07:28:12.514Z,1003.02
2018-12-27T07:29:12.532Z,1003.04
2018-12-27T07:30:12.508Z,1003.03
2018-12-27T07:31:12.514Z,1002.98
2018-12-27T07:32:12.475Z,1002.98
2018-12-27T07:33:12.480Z,1003.00
2018-12-27T07:34:12.459Z,1003.01
2018-12-27T07:35:12.475Z,1002.97
2018-12-27T07:36:12.472Z,1003.00
2018-12-27T07:37:12.424Z,1003.02
2018-12-27T07:38:12.406Z,1002.96
2018-12-27T07:39:12.397Z,1002.95
2018-12-27T07:40:12.395Z,1003.00
2018-12-27T07:41:12.389Z,1002.98
2018-12-27T07:42:12.395Z,1003.00
2018-12-27T07:43:12.353Z,1003.00
2018-12-27T07:44:12.354Z,1002.94
2018-12-27T07:45:12.376Z,1002.95
2018-12-27T07:46:12.337Z,1002.93
2018-12-27T07:47:12.323Z,1003.00
2018-12-27T07:48:12.301Z,1002.99
2018-12-27T07:49:12.332Z,1002.97
2018-12-27T07:50:12.282Z,1002.97
2018-12-27T07:51:12.308Z,1002.96
2018-12-27T07:52:12.257Z,1002.97
2018-12-27T07:53:12.301Z,1002.95
2018-12-27T07:54:12.242Z,1002.95
2018-12-27T07:55:12.235Z,1002.98
2018-12-27T07:56:12.232Z,1002.98
2018-12-27T07:57:12.210Z,1002.99
2018-12-27T07:58:12.196Z,1002.99
2018-12-27T07:59:12.203Z,1002.98
2018-12-27T08:00:12.188Z,1002.92
2018-12-27T08:01:12.195Z,1002.95
2018-12-27T08:02:12.179Z,1002.99
2018-12-27T08:03:12.146Z,1002.92
2018-12-27T08:04:12.146Z,1002.95
2018-12-27T08:05:12.123Z,1002.95
2018-12-27T08:06:12.166Z,1002.98
2018-12-27T08:07:12.106Z,1003.00
2018-12-27T08:08:12.090Z,1003.02
2018-12-27T08:09:12.085Z,1002.97
2018-12-27T08:10:12.072Z,1003.04
2018-12-27T08:11:12.073Z,1003.01
2018-12-27T08:12:12.092Z,1003.00
2018-12-27T08:13:12.068Z,1003.06
2018-12-27T08:14:12.034Z,1003.07
2018-12-27T08:15:12.015Z,1003.05
2018-12-27T08:16:12.060Z,1003.02
2018-12-27T08:17:11.995Z,1002.99
2018-12-27T08:18:11.985Z,1003.00
2018-12-27T08:19:11.978Z,1003.01
2018-12-27T08:20:11.971Z,1003.01
2018-12-27T08:21:11.979Z,1002.99
2018-12-27T08:22:11.943Z,1002.99
2018-12-27T08:23:11.968Z,1003.02
2018-12-27T08:24:11.952Z,1002.97
2018-12-27T08:25:11.914Z,1003.01
2018-12-27T08:26:11.924Z,1002.96
2018-12-27T08:27:11.959Z,1003.00
2018-12-27T08:28:11.879Z,1002.98
2018-12-27T08:29:11.871Z,1002.94
2018-12-27T08:30:11.868Z,1003.01
2018-12-27T08:31:12.164Z,1002.96
2018-12-27T08:32:11.854Z,1003.01
2018-12-27T08:33:11.836Z,1003.00
2018-12-27T08:34:11.818Z,1002.99
2018-12-27T08:35:11.887Z,1003.05
2018-12-27T08:36:11.812Z,1003.03
2018-12-27T08:37:11.829Z,1003.06
2018-12-27T08:38:11.777Z,1003.02
2018-12-27T08:39:11.766Z,1003.05
2018-12-27T08:40:11.760Z,1003.05
2018-12-27T08:41:11.771Z,1003.02
2018-12-27T08:42:12.659Z,1003.00
2018-12-27T08:43:11.725Z,1003.02
2018-12-27T08:44:11.750Z,1003.00
2018-12-27T08:45:11.701Z,1003.01
2018-12-27T08:46:11.692Z,1003.02
2018-12-27T08:47:11.698Z,1003.06
2018-12-27T08:48:11.671Z,1003.07
2018-12-27T08:49:11.667Z,1003.05
2018-12-27T08:50:11.671Z,1003.03
2018-12-27T08:51:11.639Z,1003.07
2018-12-27T08:52:11.646Z,1003.04
2018-12-27T08:53:11.621Z,1003.04
2018-12-27T08:54:11.627Z,1003.03
2018-12-27T08:55:11.597Z,1003.03
2018-12-27T08:56:11.650Z,1003.03
2018-12-27T08:57:11.616Z,1003.01
2018-12-27T08:58:11.580Z,1003.05
2018-12-27T08:59:11.574Z,1003.02
2018-12-27T09:00:11.545Z,1003.04
2018-12-27T09:01:11.541Z,1002.99
2018-12-27T09:02:11.538Z,1003.05
2018-12-27T09:03:11.515Z,1003.04
2018-12-27T09:04:11.505Z,1003.04
2018-12-27T09:05:18.670Z,1003.00
2018-12-27T09:06:12.479Z,1003.03
2018-12-27T09:07:11.488Z,1003.02
2018-12-27T09:08:11.474Z,1003.05
2018-12-27T09:09:11.453Z,1003.06
2018-12-27T09:10:11.439Z,1003.05
2018-12-27T09:11:11.429Z,1003.07
2018-12-27T09:12:11.451Z,1003.09
2018-12-27T09:13:11.407Z,1003.05
2018-12-27T09:14:11.401Z,1003.08
2018-12-27T09:15:11.418Z,1003.04
2018-12-27T09:16:11.381Z,1003.10
2018-12-27T09:17:11.381Z,1003.07
2018-12-27T09:18:11.354Z,1003.11
2018-12-27T09:19:11.343Z,1003.09
2018-12-27T09:20:11.336Z,1003.12
2018-12-27T09:21:11.360Z,1003.07
2018-12-27T09:22:11.343Z,1003.13
2018-12-27T09:23:11.303Z,1003.15
2018-12-27T09:24:11.297Z,1003.14
2018-12-27T09:25:11.283Z,1003.18
2018-12-27T09:26:11.296Z,1003.15
2018-12-27T09:27:11.290Z,1003.20
2018-12-27T09:28:11.257Z,1003.18
2018-12-27T09:29:11.294Z,1003.21
2018-12-27T09:30:11.228Z,1003.23
2018-12-27T09:31:11.218Z,1003.18
2018-12-27T09:32:11.256Z,1003.16
2018-12-27T09:33:11.214Z,1003.22
2018-12-27T09:34:11.192Z,1003.15
2018-12-27T09:35:11.194Z,1003.13
2018-12-27T09:36:11.201Z,1003.15
2018-12-27T09:37:11.177Z,1003.15
2018-12-27T09:38:11.163Z,1003.14
2018-12-27T09:39:11.134Z,1003.18
2018-12-27T09:40:11.152Z,1003.16
2018-12-27T09:41:11.133Z,1003.13
2018-12-27T09:42:11.104Z,1003.21
2018-12-27T09:43:11.113Z,1003.18
2018-12-27T09:44:11.102Z,1003.19
2018-12-27T09:45:11.101Z,1003.18
2018-12-27T09:46:11.078Z,1003.16
2018-12-27T09:47:11.050Z,1003.18
2018-12-27T09:48:11.055Z,1003.20
2018-12-27T09:49:11.031Z,1003.12
2018-12-27T09:50:11.025Z,1003.19
2018-12-27T09:51:11.010Z,1003.18
2018-12-27T09:52:11.026Z,1003.12
2018-12-27T09:53:11.002Z,1003.09
2018-12-27T09:54:10.978Z,1003.12
2018-12-27T09:55:10.977Z,1003.01
2018-12-27T09:56:10.966Z,1003.10
2018-12-27T09:57:10.946Z,1003.04
2018-12-27T09:58:10.961Z,1003.06
2018-12-27T09:59:10.935Z,1003.04
2018-12-27T10:00:10.955Z,1003.01
2018-12-27T10:01:10.905Z,1003.02
2018-12-27T10:02:10.896Z,1002.99
2018-12-27T10:03:10.908Z,1003.00
2018-12-27T10:04:10.873Z,1003.02
2018-12-27T10:05:10.891Z,1002.95
2018-12-27T10:06:10.882Z,1002.96
2018-12-27T10:07:10.847Z,1002.91
2018-12-27T10:08:10.848Z,1002.86
2018-12-27T10:09:10.820Z,1002.90
2018-12-27T10:10:10.809Z,1002.84
2018-12-27T10:11:10.802Z,1002.78
2018-12-27T10:12:10.818Z,1002.78
2018-12-27T10:13:10.797Z,1002.79
2018-12-27T10:14:10.774Z,1002.82
2018-12-27T10:15:10.763Z,1002.80
2018-12-27T10:16:10.746Z,1002.84
2018-12-27T10:17:10.762Z,1002.84
2018-12-27T10:18:10.747Z,1002.79
2018-12-27T10:19:10.719Z,1002.81
2018-12-27T10:20:10.708Z,1002.72
2018-12-27T10:21:10.713Z,1002.74
2018-12-27T10:22:10.680Z,1002.82
2018-12-27T10:23:10.684Z,1002.83
2018-12-27T10:24:10.662Z,1002.78
2018-12-27T10:25:10.683Z,1002.80
2018-12-27T10:26:10.645Z,1002.77
2018-12-27T10:27:10.633Z,1002.77
2018-12-27T10:28:10.634Z,1002.74
2018-12-27T10:29:10.607Z,1002.74
2018-12-27T10:30:10.601Z,1002.73
2018-12-27T10:31:10.617Z,1002.73
2018-12-27T10:32:10.578Z,1002.79
2018-12-27T10:33:10.586Z,1002.77
2018-12-27T10:34:10.552Z,1002.77
2018-12-27T10:35:10.543Z,1002.77
2018-12-27T10:36:10.534Z,1002.71
2018-12-27T10:37:10.533Z,1002.76
2018-12-27T10:38:10.524Z,1002.71
2018-12-27T10:39:10.499Z,1002.68
2018-12-27T10:40:10.490Z,1002.71
2018-12-27T10:41:10.480Z,1002.73
2018-12-27T10:42:10.469Z,1002.67
2018-12-27T10:43:10.472Z,1002.70
2018-12-27T10:44:10.469Z,1002.67
2018-12-27T10:45:10.444Z,1002.61
2018-12-27T10:46:10.445Z,1002.65
2018-12-27T10:47:10.417Z,1002.61
2018-12-27T10:48:10.421Z,1002.62
2018-12-27T10:49:10.397Z,1002.60
2018-12-27T10:50:10.394Z,1002.55
2018-12-27T10:51:10.373Z,1002.54
2018-12-27T10:52:10.361Z,1002.55
2018-12-27T10:53:10.442Z,1002.53
2018-12-27T10:54:10.343Z,1002.47
2018-12-27T10:55:10.330Z,1002.49
2018-12-27T10:56:10.325Z,1002.41
2018-12-27T10:57:10.324Z,1002.45
2018-12-27T10:58:10.298Z,1002.45
2018-12-27T10:59:10.301Z,1002.36
2018-12-27T11:00:10.278Z,1002.43
2018-12-27T11:01:10.286Z,1002.47
2018-12-27T11:02:10.262Z,1002.36
2018-12-27T11:03:10.319Z,1002.44
2018-12-27T11:04:10.251Z,1002.36
2018-12-27T11:05:10.227Z,1002.36
2018-12-27T11:06:10.213Z,1002.31
2018-12-27T11:07:10.203Z,1002.30
2018-12-27T11:08:10.216Z,1002.26
2018-12-27T11:09:10.201Z,1002.25
2018-12-27T11:10:11.374Z,1002.28
2018-12-27T11:11:10.159Z,1002.20
2018-12-27T11:12:10.152Z,1002.28
2018-12-27T11:13:10.140Z,1002.24
2018-12-27T11:14:10.142Z,1002.16
2018-12-27T11:15:10.145Z,1002.17
2018-12-27T11:16:10.122Z,1002.16
2018-12-27T11:17:10.098Z,1002.12
2018-12-27T11:18:10.102Z,1002.09
2018-12-27T11:19:10.102Z,1002.07
2018-12-27T11:20:10.114Z,1002.02
2018-12-27T11:21:10.053Z,1002.07
2018-12-27T11:22:10.079Z,1002.03
2018-12-27T11:23:10.060Z,1001.96
2018-12-27T11:24:10.036Z,1001.88
2018-12-27T11:25:10.017Z,1001.87
2018-12-27T11:26:10.005Z,1001.85
2018-12-27T11:27:09.990Z,1001.91
2018-12-27T11:28:09.980Z,1001.88
2018-12-27T11:29:10.028Z,1001.82
2018-12-27T11:30:09.986Z,1001.82
2018-12-27T11:31:09.952Z,1001.81
2018-12-27T11:32:09.942Z,1001.73
2018-12-27T11:33:09.934Z,1001.78
2018-12-27T11:34:09.931Z,1001.68
2018-12-27T11:35:09.940Z,1001.66
2018-12-27T11:36:16.991Z,1001.63
2018-12-27T11:37:10.896Z,1001.65
2018-12-27T11:38:09.875Z,1001.69
2018-12-27T11:39:09.903Z,1001.66
2018-12-27T11:40:09.897Z,1001.59
2018-12-27T11:41:09.847Z,1001.65
2018-12-27T11:42:09.834Z,1001.63
2018-12-27T11:43:09.860Z,1001.61
2018-12-27T11:44:09.828Z,1001.68
2018-12-27T11:45:09.804Z,1001.62
2018-12-27T11:46:09.793Z,1001.55
2018-12-27T11:47:09.777Z,1001.63
2018-12-27T11:48:09.769Z,1001.62
2018-12-27T11:49:09.876Z,1001.59
2018-12-27T11:50:09.753Z,1001.62
2018-12-27T11:51:09.741Z,1001.60
2018-12-27T11:52:09.758Z,1001.54
2018-12-27T11:53:09.722Z,1001.56
2018-12-27T11:54:09.717Z,1001.51
2018-12-27T11:55:09.695Z,1001.52
2018-12-27T11:56:09.723Z,1001.53
2018-12-27T11:57:09.680Z,1001.53
2018-12-27T11:58:09.679Z,1001.54
2018-12-27T11:59:09.734Z,1001.56
2018-12-27T12:00:09.642Z,1001.51
2018-12-27T12:01:09.629Z,1001.47
2018-12-27T12:02:09.643Z,1001.51
2018-12-27T12:03:09.653Z,1001.46
2018-12-27T12:04:09.610Z,1001.41
2018-12-27T12:05:09.587Z,1001.49